Time;durP1;ratioP1;P1;durP2;ratioP2;P2;SDS_P1;SDS_P2;PMS_P1;PMS_P2;Temp;Humidity;BMP_temperature;BMP_pressure;BME280_temperature;BME280_humidity;BME280_pressure;Samples;Min_cycle;Max_cycle;Signal;HPM_P1;HPM_P2
2021/11/28 00:01:53;;;;;;;15.25;2.90;;;10.40;99.90;;;;;;4958309;28;20511;-85
2021/11/28 00:04:22;;;;;;;14.57;2.72;;;10.40;99.90;;;;;;4975896;28;20058;-86
2021/11/28 00:06:57;;;;;;;7.18;2.80;;;10.40;99.90;;;;;;4958717;28;20062;-85
2021/11/28 00:09:42;;;;;;;9.23;2.42;;;10.40;99.90;;;;;;4958818;28;20508;-85
2021/11/28 00:12:11;;;;;;;13.10;2.17;;;10.40;99.90;;;;;;4958671;28;20399;-86
2021/11/28 00:14:41;;;;;;;11.43;2.53;;;10.50;99.90;;;;;;4958639;28;20045;-85
2021/11/28 00:17:08;;;;;;;5.32;2.03;;;10.50;99.90;;;;;;4975923;28;20395;-86
2021/11/28 00:19:37;;;;;;;15.18;2.30;;;10.60;99.90;;;;;;4975639;28;20447;-86
2021/11/28 00:22:06;;;;;;;10.10;3.95;;;10.70;99.90;;;;;;4975783;28;20035;-86
2021/11/28 00:24:36;;;;;;;6.45;2.10;;;10.70;99.90;;;;;;4975634;28;20496;-86
2021/11/28 00:27:08;;;;;;;10.85;3.08;;;10.70;99.90;;;;;;4980823;28;20038;-85
2021/11/28 00:29:37;;;;;;;10.20;2.10;;;10.70;99.90;;;;;;5014687;28;20596;-84
2021/11/28 00:32:03;;;;;;;7.20;1.63;;;10.70;99.90;;;;;;5014736;28;20088;-85
2021/11/28 00:34:30;;;;;;;6.63;1.88;;;10.50;99.90;;;;;;4996829;28;20041;-85
2021/11/28 00:36:58;;;;;;;8.45;2.42;;;10.40;99.90;;;;;;5014283;28;20476;-84
2021/11/28 00:39:24;;;;;;;10.57;2.40;;;10.30;99.90;;;;;;5014477;28;20089;-85
2021/11/28 00:41:58;;;;;;;8.13;2.42;;;10.20;99.90;;;;;;5013965;28;20041;-85
2021/11/28 00:44:24;;;;;;;6.47;1.80;;;10.10;99.90;;;;;;4996707;28;20044;-84
2021/11/28 00:46:53;;;;;;;3.78;1.27;;;10.00;99.90;;;;;;4996340;28;20390;-85
2021/11/28 00:49:22;;;;;;;9.15;1.60;;;10.00;99.90;;;;;;4996978;28;20037;-85
2021/11/28 00:51:50;;;;;;;4.95;1.55;;;10.00;99.90;;;;;;4996918;28;20034;-85
2021/11/28 00:54:22;;;;;;;2.53;1.42;;;9.90;99.90;;;;;;4996872;28;20073;-85
2021/11/28 00:56:48;;;;;;;3.63;1.70;;;9.90;99.90;;;;;;4996699;28;20434;-85
2021/11/28 00:59:17;;;;;;;4.70;1.25;;;9.90;99.90;;;;;;4996354;28;20394;-85
2021/11/28 01:01:43;;;;;;;7.82;1.58;;;9.90;99.90;;;;;;4996476;28;20061;-85
2021/11/28 01:04:10;;;;;;;3.45;1.63;;;9.80;99.90;;;;;;4996250;28;20041;-85
2021/11/28 01:06:38;;;;;;;2.63;1.73;;;9.90;99.90;;;;;;4995160;28;20410;-86
2021/11/28 01:09:06;;;;;;;4.72;1.88;;;9.80;99.90;;;;;;5013596;28;20394;-85
2021/11/28 01:11:33;;;;;;;9.05;2.17;;;9.70;99.90;;;;;;5013777;28;20462;-85
2021/11/28 01:13:59;;;;;;;10.68;1.90;;;9.60;99.90;;;;;;5014031;28;20037;-85
2021/11/28 01:16:27;;;;;;;10.68;2.00;;;9.60;99.90;;;;;;4996228;28;20030;-84
2021/11/28 01:18:56;;;;;;;6.95;2.00;;;9.60;99.90;;;;;;4996613;28;20406;-85
2021/11/28 01:21:27;;;;;;;4.95;2.15;;;9.60;99.90;;;;;;4976461;28;20084;-85
2021/11/28 01:24:00;;;;;;;6.65;2.08;;;9.60;99.90;;;;;;4975994;28;20035;-85
2021/11/28 01:26:28;;;;;;;5.93;2.00;;;9.60;99.90;;;;;;4993172;28;20472;-85
2021/11/28 01:28:59;;;;;;;9.20;2.20;;;9.70;99.90;;;;;;4975365;28;20046;-85
2021/11/28 01:31:25;;;;;;;;;;;9.70;99.90;;;;;;4977082;28;20034;-85
2021/11/28 01:33:51;;;;;;;11.63;2.58;;;9.70;99.90;;;;;;4976516;28;19912;-85
2021/11/28 01:36:20;;;;;;;10.77;2.38;;;9.60;99.90;;;;;;4993494;28;20061;-85
2021/11/28 01:38:49;;;;;;;6.53;2.20;;;9.70;99.90;;;;;;4993759;28;20387;-85
2021/11/28 01:41:18;;;;;;;7.70;2.35;;;9.60;99.90;;;;;;4976621;28;20383;-85
2021/11/28 01:43:51;;;;;;;6.20;2.28;;;9.60;99.90;;;;;;4993627;28;20081;-85
2021/11/28 01:46:19;;;;;;;7.57;1.90;;;9.60;99.90;;;;;;4993442;28;20038;-86
2021/11/28 01:48:45;;;;;;;8.30;2.28;;;9.70;99.90;;;;;;4975727;28;20074;-85
2021/11/28 01:51:15;;;;;;;11.52;2.17;;;9.70;99.90;;;;;;4976156;28;20502;-84
2021/11/28 01:53:41;;;;;;;12.82;2.40;;;9.70;99.90;;;;;;4993441;28;20495;-85
2021/11/28 01:56:10;;;;;;;19.38;2.22;;;9.80;99.90;;;;;;4976341;28;20455;-85
2021/11/28 01:58:37;;;;;;;13.88;2.45;;;9.80;99.90;;;;;;4993630;28;20105;-85
2021/11/28 02:01:09;;;;;;;7.18;2.38;;;9.90;99.90;;;;;;4975942;28;20502;-85
2021/11/28 02:03:38;;;;;;;9.23;2.35;;;9.90;99.90;;;;;;4975708;28;20129;-85
2021/11/28 02:06:05;;;;;;;12.60;2.78;;;9.90;99.90;;;;;;4993039;28;20026;-86
2021/11/28 02:08:31;;;;;;;13.73;2.35;;;9.90;99.90;;;;;;4993064;28;20064;-85
2021/11/28 02:11:00;;;;;;;9.25;2.95;;;10.00;99.90;;;;;;4993433;28;20034;-85
2021/11/28 02:13:26;;;;;;;7.68;2.50;;;10.00;99.90;;;;;;4992881;28;20038;-85
2021/11/28 02:15:53;;;;;;;8.15;3.55;;;9.90;99.90;;;;;;4993292;28;20387;-85
2021/11/28 02:18:20;;;;;;;17.73;3.72;;;9.90;99.90;;;;;;4975422;28;20041;-85
2021/11/28 02:20:52;;;;;;;15.02;3.95;;;9.90;99.90;;;;;;4993171;28;20035;-85
2021/11/28 02:23:18;;;;;;;22.30;3.90;;;10.00;99.90;;;;;;4976215;28;20038;-85
2021/11/28 02:25:46;;;;;;;12.52;3.10;;;9.90;99.90;;;;;;4993117;28;20026;-85
2021/11/28 02:28:13;;;;;;;14.02;3.88;;;9.80;99.90;;;;;;4975451;28;20169;-85
2021/11/28 02:30:39;;;;;;;5.25;2.08;;;9.70;99.90;;;;;;4975012;28;20105;-85
2021/11/28 02:33:05;;;;;;;8.38;2.40;;;9.80;99.90;;;;;;4975073;28;20129;-85
2021/11/28 02:35:33;;;;;;;8.43;2.42;;;9.70;99.90;;;;;;4992882;28;20431;-85
2021/11/28 02:38:02;;;;;;;10.60;2.85;;;9.70;99.90;;;;;;4993045;28;20031;-84
2021/11/28 02:40:30;;;;;;;14.32;3.40;;;9.70;99.90;;;;;;4993012;28;20022;-85
2021/11/28 02:43:00;;;;;;;14.80;2.95;;;9.70;99.90;;;;;;4974851;28;20046;-85
2021/11/28 02:45:28;;;;;;;19.38;4.13;;;9.60;99.90;;;;;;4974717;28;20394;-85
2021/11/28 02:47:57;;;;;;;13.15;3.38;;;9.60;99.90;;;;;;4992628;28;20046;-85
2021/11/28 02:50:26;;;;;;;12.98;2.90;;;9.60;99.90;;;;;;4992411;28;20038;-85
2021/11/28 02:53:04;;;;;;;17.40;4.00;;;9.60;99.90;;;;;;4992674;28;20423;-85
2021/11/28 02:55:36;;;;;;;8.88;2.45;;;9.60;99.90;;;;;;4956053;28;20053;-85
2021/11/28 02:58:03;;;;;;;10.02;3.20;;;9.60;99.90;;;;;;4972341;28;20039;-85
2021/11/28 03:00:33;;;;;;;10.77;2.65;;;9.70;99.90;;;;;;4977603;28;20026;-85
2021/11/28 03:02:59;;;;;;;6.93;2.42;;;9.70;99.90;;;;;;4990917;28;20026;-85
2021/11/28 03:05:25;;;;;;;6.65;2.58;;;9.60;99.90;;;;;;4973920;28;20046;-85
2021/11/28 03:07:54;;;;;;;10.30;2.75;;;9.50;99.90;;;;;;4974048;28;20035;-85
2021/11/28 03:10:43;;;;;;;9.68;1.92;;;9.50;99.90;;;;;;4993419;28;20078;-85
2021/11/28 03:13:25;;;;;;;5.72;2.17;;;9.50;99.90;;;;;;4975020;28;20057;-85
2021/11/28 03:15:58;;;;;;;3.45;1.90;;;9.40;99.90;;;;;;4992771;28;20089;-85
2021/11/28 03:18:25;;;;;;;6.63;2.05;;;9.40;99.90;;;;;;4975205;28;20137;-85
2021/11/28 03:20:54;;;;;;;7.68;1.88;;;9.40;99.90;;;;;;4992807;28;20109;-85
2021/11/28 03:23:25;;;;;;;8.48;1.70;;;9.50;99.90;;;;;;4992796;28;20027;-85
2021/11/28 03:26:14;;;;;;;9.60;2.30;;;9.50;99.90;;;;;;4992829;28;20034;-85
2021/11/28 03:29:04;;;;;;;7.80;2.20;;;9.50;99.90;;;;;;4992450;28;20121;-85
2021/11/28 03:31:34;;;;;;;9.70;2.15;;;9.60;99.90;;;;;;4978655;28;20431;-85
2021/11/28 03:34:04;;;;;;;5.95;1.58;;;9.60;99.90;;;;;;4995988;28;20387;-85
2021/11/28 03:36:34;;;;;;;9.88;1.70;;;9.60;99.90;;;;;;4995742;28;20038;-84
2021/11/28 03:39:00;;;;;;;8.70;1.80;;;9.60;99.90;;;;;;4995855;28;20458;-85
2021/11/28 03:41:31;;;;;;;6.15;1.48;;;9.60;99.90;;;;;;4995092;28;20034;-85
2021/11/28 03:44:00;;;;;;;5.53;1.48;;;9.70;99.90;;;;;;4995869;28;20454;-85
2021/11/28 03:46:29;;;;;;;11.98;2.00;;;9.80;99.90;;;;;;4995962;28;20063;-85
2021/11/28 03:49:00;;;;;;;8.05;2.15;;;9.90;99.90;;;;;;4978512;28;20045;-85
2021/11/28 03:51:30;;;;;;;9.45;2.35;;;9.90;99.90;;;;;;4977882;28;20077;-85
2021/11/28 03:53:57;;;;;;;10.27;2.00;;;10.00;99.90;;;;;;4995501;28;20038;-85
2021/11/28 03:56:23;;;;;;;7.57;1.73;;;10.00;99.90;;;;;;4995571;28;20113;-85
2021/11/28 03:58:49;;;;;;;8.90;2.20;;;10.10;99.90;;;;;;4978286;28;20034;-86
2021/11/28 04:01:16;;;;;;;6.07;1.88;;;10.10;99.90;;;;;;4977875;28;20030;-84
2021/11/28 04:03:43;;;;;;;6.68;1.45;;;10.10;99.90;;;;;;4994969;28;20587;-85
2021/11/28 04:06:12;;;;;;;16.05;2.38;;;10.20;99.90;;;;;;4995445;28;20061;-85
2021/11/28 04:08:41;;;;;;;7.80;2.30;;;10.20;99.90;;;;;;4995246;28;20043;-85
2021/11/28 04:11:07;;;;;;;6.85;1.75;;;10.20;99.90;;;;;;4978019;28;20118;-85
2021/11/28 04:13:34;;;;;;;3.92;1.38;;;10.10;99.90;;;;;;4995112;28;20173;-85
2021/11/28 04:16:07;;;;;;;4.80;1.55;;;10.20;99.90;;;;;;4977856;28;20494;-85
2021/11/28 04:18:33;;;;;;;5.20;1.50;;;10.20;99.90;;;;;;4995453;28;20034;-84
2021/11/28 04:20:59;;;;;;;6.32;1.75;;;10.20;99.90;;;;;;4995514;28;20036;-85
2021/11/28 04:23:25;;;;;;;10.32;1.77;;;10.20;99.90;;;;;;4995348;28;20162;-85
2021/11/28 04:25:54;;;;;;;10.50;2.15;;;10.30;99.90;;;;;;4995076;28;20158;-85
2021/11/28 04:28:20;;;;;;;7.80;1.50;;;10.30;99.90;;;;;;4995397;28;20100;-85
2021/11/28 04:30:46;;;;;;;6.68;1.35;;;10.40;99.90;;;;;;4995155;28;20109;-85
2021/11/28 04:33:15;;;;;;;5.30;1.20;;;10.40;99.90;;;;;;4994852;28;20275;-85
2021/11/28 04:35:41;;;;;;;5.55;1.55;;;10.40;99.90;;;;;;4994735;28;20030;-85
2021/11/28 04:38:09;;;;;;;11.18;1.40;;;10.30;99.90;;;;;;4994064;28;20022;-85
2021/11/28 04:40:36;;;;;;;6.88;2.05;;;10.40;99.90;;;;;;4976554;28;20035;-85
2021/11/28 04:43:06;;;;;;;2.05;0.98;;;10.40;99.90;;;;;;4994455;28;20105;-85
2021/11/28 04:45:35;;;;;;;2.95;1.00;;;10.40;99.90;;;;;;4994535;28;20236;-86
2021/11/28 04:48:05;;;;;;;5.95;1.45;;;10.40;99.90;;;;;;4994347;28;20522;-85
2021/11/28 04:50:31;;;;;;;3.30;1.10;;;10.30;99.90;;;;;;4994662;28;20026;-85
2021/11/28 04:52:57;;;;;;;4.47;1.88;;;10.40;99.90;;;;;;4978247;28;20038;-85
2021/11/28 04:55:25;;;;;;;1.70;1.10;;;10.40;99.90;;;;;;4994639;28;20034;-85
2021/11/28 04:57:54;;;;;;;2.85;1.15;;;10.40;99.90;;;;;;4977108;28;20117;-85
2021/11/28 05:00:22;;;;;;;10.35;1.00;;;10.40;99.90;;;;;;4994265;28;20061;-85
2021/11/28 05:02:49;;;;;;;3.53;0.90;;;10.40;99.90;;;;;;4977065;28;20558;-86
2021/11/28 05:05:21;;;;;;;2.85;0.80;;;10.30;99.90;;;;;;4994205;28;20050;-85
2021/11/28 05:07:47;;;;;;;1.70;1.00;;;10.30;99.90;;;;;;4994289;28;20077;-85
2021/11/28 05:10:21;;;;;;;5.25;0.80;;;10.30;99.90;;;;;;4993816;28;20031;-85
2021/11/28 05:12:53;;;;;;;1.35;0.82;;;10.30;99.90;;;;;;4976531;28;20035;-85
2021/11/28 05:15:26;;;;;;;3.87;0.97;;;10.30;99.90;;;;;;4976424;28;20042;-85
2021/11/28 05:17:58;;;;;;;10.73;1.77;;;10.20;99.90;;;;;;4976724;28;20321;-85
2021/11/28 05:20:26;;;;;;;3.42;1.10;;;10.20;99.90;;;;;;4994130;28;20037;-84
2021/11/28 05:22:52;;;;;;;4.72;1.42;;;10.20;99.90;;;;;;4994161;28;20026;-85
2021/11/28 05:25:18;;;;;;;3.78;0.80;;;10.20;99.90;;;;;;4976597;28;20491;-86
2021/11/28 05:27:52;;;;;;;3.38;0.90;;;10.20;99.90;;;;;;4976556;28;20129;-85
2021/11/28 05:30:23;;;;;;;7.50;1.35;;;10.20;99.90;;;;;;4976686;28;20077;-85
2021/11/28 05:32:52;;;;;;;13.32;1.58;;;10.20;99.90;;;;;;4993847;28;20027;-85
2021/11/28 05:35:18;;;;;;;7.13;1.10;;;10.20;99.90;;;;;;4975855;28;20045;-86
2021/11/28 05:37:45;;;;;;;4.55;1.05;;;10.20;99.90;;;;;;4976122;28;20042;-84
2021/11/28 05:40:12;;;;;;;5.45;1.05;;;10.20;99.90;;;;;;4994033;28;20030;-85
2021/11/28 05:42:39;;;;;;;5.28;1.52;;;10.30;99.90;;;;;;4976399;28;20078;-85
2021/11/28 05:45:11;;;;;;;6.10;1.50;;;10.20;99.90;;;;;;4993356;28;20038;-85
2021/11/28 05:47:37;;;;;;;6.07;1.25;;;10.30;99.90;;;;;;4975694;28;20042;-85
2021/11/28 05:50:07;;;;;;;5.60;1.10;;;10.30;99.90;;;;;;4993599;28;20038;-85
2021/11/28 05:52:36;;;;;;;4.03;0.85;;;10.40;99.90;;;;;;4974829;28;20035;-85
2021/11/28 05:55:09;;;;;;;4.03;1.00;;;10.40;99.90;;;;;;4976038;28;20121;-85
2021/11/28 05:57:36;;;;;;;11.48;2.70;;;10.40;99.90;;;;;;4991061;28;20046;-85
2021/11/28 06:00:06;;;;;;;5.43;1.92;;;10.50;99.90;;;;;;4975992;28;20125;-85
2021/11/28 06:02:36;;;;;;;3.60;0.90;;;10.50;99.90;;;;;;4993397;28;20125;-85
2021/11/28 06:05:09;;;;;;;14.68;2.80;;;10.50;99.90;;;;;;4993305;28;20097;-86
2021/11/28 06:07:39;;;;;;;5.68;1.30;;;10.50;99.90;;;;;;4993062;28;20038;-86
2021/11/28 06:10:06;;;;;;;5.13;1.20;;;10.50;99.90;;;;;;4975994;28;20038;-85
2021/11/28 06:12:35;;;;;;;10.15;1.38;;;10.50;99.90;;;;;;4992824;28;20037;-85
2021/11/28 06:15:03;;;;;;;14.65;2.28;;;10.50;99.90;;;;;;4992916;28;20050;-86
2021/11/28 06:17:32;;;;;;;3.35;1.50;;;10.60;99.90;;;;;;4974445;28;20042;-85
2021/11/28 06:20:10;;;;;;;7.47;1.60;;;10.60;99.90;;;;;;4991770;28;20034;-85
2021/11/28 06:22:47;;;;;;;9.48;2.95;;;10.50;99.90;;;;;;4991911;28;20030;-85
2021/11/28 06:25:23;;;;;;;19.27;4.53;;;10.60;99.90;;;;;;4973738;28;20058;-85
2021/11/28 06:27:57;;;;;;;15.43;2.95;;;10.60;99.90;;;;;;4974136;28;20030;-85
2021/11/28 06:30:31;;;;;;;10.93;3.15;;;10.50;99.90;;;;;;4974066;28;20034;-85
2021/11/28 06:33:04;;;;;;;17.23;2.22;;;10.50;99.90;;;;;;4974821;28;20030;-84
2021/11/28 06:35:50;;;;;;;7.07;2.22;;;10.60;99.90;;;;;;4974669;28;20035;-85
2021/11/28 06:38:47;;;;;;;10.95;1.58;;;10.60;99.90;;;;;;4975389;28;20042;-85
2021/11/28 06:41:26;;;;;;;10.60;1.52;;;10.50;99.90;;;;;;4975261;28;20035;-85
2021/11/28 06:44:16;;;;;;;4.80;1.60;;;10.50;99.90;;;;;;4992071;28;20046;-85
2021/11/28 06:47:05;;;;;;;4.95;1.77;;;10.40;99.90;;;;;;4973396;28;20034;-85
2021/11/28 06:49:43;;;;;;;14.70;2.22;;;10.40;99.90;;;;;;4991046;28;20047;-85
2021/11/28 06:52:28;;;;;;;17.77;4.75;;;10.40;99.90;;;;;;4974858;28;20058;-84
2021/11/28 06:55:00;;;;;;;23.17;6.07;;;10.50;99.90;;;;;;4992227;28;20038;-85
2021/11/28 09:12:39;;;;;;;;;;;;;;;;;;;;;
2021/11/28 11:03:26;;;;;;;;;;;;;;;;;;;;;
2021/11/28 11:07:05;;;;;;;;;;;;;;;;;;;;;
2021/11/28 13:01:00;;;;;;;;;;;;;;;;;;;;;
2021/11/28 13:20:41;;;;;;;15.43;8.07;;;11.90;99.90;;;;;;4803827;29;20038;-84
2021/11/28 20:09:58;;;;;;;;;;;;;;;;;;;;;
2021/11/28 21:16:14;;;;;;;5.95;2.33;;;6.80;99.90;;;;;;4765009;30;20046;-86
2021/11/28 22:41:48;;;;;;;2.83;2.10;;;7.00;99.90;;;;;;4787962;24;20076;-83
2021/11/28 22:44:13;;;;;;;6.43;2.90;;;7.00;99.90;;;;;;4832654;29;20487;-84
2021/11/28 22:46:39;;;;;;;4.25;2.13;;;7.10;99.90;;;;;;4856763;29;20037;-83
2021/11/28 22:49:05;;;;;;;10.82;2.60;;;7.10;99.90;;;;;;4850174;29;20624;-83
2021/11/28 22:51:31;;;;;;;6.85;2.22;;;7.20;99.90;;;;;;4849284;29;20061;-80
2021/11/28 22:53:57;;;;;;;5.35;2.78;;;7.20;99.90;;;;;;4831794;29;20495;-85
2021/11/28 22:56:23;;;;;;;2.95;1.90;;;7.20;99.90;;;;;;4859806;29;20033;-84
2021/11/28 22:58:50;;;;;;;4.13;1.63;;;7.10;99.90;;;;;;4866709;29;20106;-88
2021/11/28 23:01:19;;;;;;;4.28;1.90;;;7.10;99.90;;;;;;4868556;29;20055;-84
2021/11/28 23:03:45;;;;;;;5.53;2.33;;;7.10;99.90;;;;;;4850776;29;20502;-86
2021/11/28 23:06:11;;;;;;;2.83;1.63;;;7.10;99.90;;;;;;4867533;29;20037;-87
2021/11/28 23:08:36;;;;;;;7.93;2.30;;;7.00;99.90;;;;;;4867534;29;20427;-80
2021/11/28 23:11:03;;;;;;;5.95;1.92;;;7.00;99.90;;;;;;4867147;29;20033;-88
2021/11/28 23:13:28;;;;;;;6.78;1.98;;;6.90;99.90;;;;;;4867016;29;20034;-82
2021/11/28 23:15:54;;;;;;;4.53;1.95;;;6.80;99.90;;;;;;4867292;29;20052;-83
2021/11/28 23:18:20;;;;;;;5.65;2.40;;;6.70;99.90;;;;;;4867089;29;20104;-84
2021/11/28 23:20:47;;;;;;;8.00;2.75;;;6.70;99.90;;;;;;4866641;29;20376;-83
2021/11/28 23:23:12;;;;;;;5.05;2.22;;;6.60;99.90;;;;;;4867000;29;20037;-85
2021/11/28 23:25:38;;;;;;;3.53;1.60;;;6.60;99.90;;;;;;4866930;29;20530;-87
2021/11/28 23:28:04;;;;;;;5.10;2.08;;;6.50;99.90;;;;;;4849930;29;20166;-87
2021/11/28 23:30:30;;;;;;;3.70;1.98;;;6.50;99.90;;;;;;4866778;29;20037;-80
2021/11/28 23:32:56;;;;;;;5.35;2.58;;;6.50;99.90;;;;;;4867270;29;20049;-80
2021/11/28 23:35:21;;;;;;;4.63;2.28;;;6.40;99.90;;;;;;4866701;29;20033;-86
2021/11/28 23:37:47;;;;;;;9.45;2.13;;;6.40;99.90;;;;;;4866643;29;20098;-83
2021/11/28 23:40:13;;;;;;;4.07;2.17;;;6.40;99.90;;;;;;4866708;29;20033;-80
2021/11/28 23:42:39;;;;;;;3.97;2.40;;;6.40;99.90;;;;;;4866241;29;20053;-85
2021/11/28 23:45:05;;;;;;;3.58;2.47;;;6.40;99.90;;;;;;4866698;29;20029;-86
2021/11/28 23:47:31;;;;;;;8.63;2.80;;;6.30;99.90;;;;;;4862817;29;20040;-81
2021/11/28 23:49:57;;;;;;;8.02;3.75;;;6.30;99.90;;;;;;4847152;29;20046;-82
2021/11/28 23:52:22;;;;;;;7.30;3.03;;;6.30;99.90;;;;;;4863559;29;20026;-84
2021/11/28 23:54:48;;;;;;;8.63;3.00;;;6.30;99.90;;;;;;4863081;29;20482;-83
2021/11/28 23:57:14;;;;;;;5.95;3.08;;;6.30;99.90;;;;;;4847024;29;20033;-84
2021/11/28 23:59:39;;;;;;;6.35;2.40;;;6.30;99.90;;;;;;4863045;29;20150;-88
